Impacts TAF Board
For situational awareness. Not to be used for flight planning purposes.
IDs:

KSFO - San Francisco Intl, CA, US

Issued at 0201 UTC 20 Mar 2019
Updated at 0247 UTC 20 Mar 2019
Potential Impact None Slight Moderate High
Time<<21/03Z 21/04Z 21/05Z 21/06Z 21/07Z 21/08Z 21/09Z 21/10Z 21/11Z 21/12Z 21/13Z 21/14Z 21/15Z
Type PRVL PRVL PRVL
VIS >6 >6 >6
CIG 50 25 25
Cover BKN BKN BKN
FltCat VFR MVFR MVFR
WX -SHRA -SHRA -SHRA
WDir 240 240 240
WSpd 16 8 8
WGst -- -- --
Raw TAF
KSFO 200201Z 2002/2106 19020G25KT P6SM BKN150 OVC200
  FM200700 12015KT P6SM -SHRA BKN035 OVC080 WS020/17035KT
  FM201100 18012KT P6SM -SHRA BKN025 OVC050
  FM201500 17015KT P6SM -SHRA BKN025 OVC050
  FM201900 24016KT P6SM -SHRA SCT025 BKN050
  FM210400 24008KT P6SM -SHRA BKN025


METAR Board
Radar Display
Forecast Discussion
For situational awareness. Not to be used for flight planning purposes.